Time;durP1;ratioP1;P1;durP2;ratioP2;P2;SDS_P1;SDS_P2;PMS_P1;PMS_P2;Temp;Humidity;BMP_temperature;BMP_pressure;BME280_temperature;BME280_humidity;BME280_pressure;Samples;Min_cycle;Max_cycle;Signal;HPM_P1;HPM_P2
2021/04/16 00:01:59;;;;;;;6.03;3.90;;;3.90;99.90;;;;;;6189195;23;20156;-77
2021/04/16 00:04:25;;;;;;;5.13;3.40;;;3.90;99.90;;;;;;6215535;23;20200;-76
2021/04/16 00:06:50;;;;;;;6.10;4.03;;;4.00;99.90;;;;;;6215191;23;20211;-76
2021/04/16 00:09:16;;;;;;;6.50;4.07;;;3.90;99.90;;;;;;6215669;23;20145;-78
2021/04/16 00:11:42;;;;;;;4.50;3.80;;;3.90;99.90;;;;;;6215418;23;20187;-77
2021/04/16 00:14:11;;;;;;;6.32;3.70;;;3.80;99.90;;;;;;6215588;23;20177;-77
2021/04/16 00:16:37;;;;;;;5.53;3.88;;;3.70;99.90;;;;;;6214961;23;20172;-77
2021/04/16 00:19:03;;;;;;;7.23;5.00;;;3.70;99.90;;;;;;6188774;23;20197;-79
2021/04/16 00:21:28;;;;;;;5.68;4.03;;;3.70;99.90;;;;;;6215541;23;20172;-77
2021/04/16 00:23:54;;;;;;;5.00;3.90;;;3.70;99.90;;;;;;6189269;23;20164;-76
2021/04/16 00:26:21;;;;;;;5.30;4.00;;;3.60;99.90;;;;;;6214918;23;20166;-77
2021/04/16 00:28:46;;;;;;;4.07;3.47;;;3.60;99.90;;;;;;6215155;23;20156;-77
2021/04/16 00:31:15;;;;;;;5.03;3.73;;;3.60;99.90;;;;;;6215442;23;20622;-77
2021/04/16 00:33:42;;;;;;;4.85;3.90;;;3.50;99.90;;;;;;6215522;23;20227;-76
2021/04/16 00:36:08;;;;;;;4.20;3.42;;;3.50;99.90;;;;;;6215124;23;20195;-77
2021/04/16 00:38:34;;;;;;;6.20;3.85;;;3.50;99.90;;;;;;6215105;23;20199;-77
2021/04/16 00:41:03;;;;;;;6.37;4.43;;;3.50;99.90;;;;;;6215184;23;20145;-76
2021/04/16 00:43:32;;;;;;;6.45;4.30;;;3.50;99.90;;;;;;6215337;23;20157;-77
2021/04/16 00:46:31;;;;;;;5.43;4.00;;;3.50;99.90;;;;;;6214985;23;20595;-77
2021/04/16 00:49:08;;;;;;;5.70;3.97;;;3.40;99.90;;;;;;6206790;23;20262;-76
2021/04/16 00:51:36;;;;;;;4.20;3.80;;;3.50;99.90;;;;;;6215539;23;20139;-76
2021/04/16 00:54:03;;;;;;;4.90;4.43;;;3.50;99.90;;;;;;6215225;23;20145;-76
2021/04/16 00:56:30;;;;;;;5.78;4.15;;;3.60;99.90;;;;;;6214985;23;20173;-77
2021/04/16 00:58:57;;;;;;;5.88;4.10;;;3.50;99.90;;;;;;6215369;23;20253;-76
2021/04/16 01:01:24;;;;;;;4.25;3.50;;;3.40;99.90;;;;;;6215319;23;20146;-76
2021/04/16 01:03:49;;;;;;;6.70;4.57;;;3.30;99.90;;;;;;6216539;23;20149;-76
2021/04/16 01:06:15;;;;;;;10.10;4.90;;;3.30;99.90;;;;;;6216726;23;20173;-77
2021/04/16 01:08:42;;;;;;;7.73;4.33;;;3.30;99.90;;;;;;6190456;23;20605;-77
2021/04/16 01:11:08;;;;;;;7.38;5.65;;;3.30;99.90;;;;;;6216836;23;20165;-78
2021/04/16 01:13:39;;;;;;;6.60;4.25;;;3.20;99.90;;;;;;6216973;23;20152;-76
2021/04/16 01:16:09;;;;;;;5.88;4.53;;;3.10;99.90;;;;;;6216669;23;20169;-77
2021/04/16 01:18:38;;;;;;;8.43;4.40;;;3.10;99.90;;;;;;6216580;23;20491;-77
2021/04/16 01:21:11;;;;;;;5.38;4.68;;;3.10;99.90;;;;;;6216804;23;20171;-77
2021/04/16 01:23:54;;;;;;;6.57;4.60;;;3.00;99.90;;;;;;6217011;23;20145;-77
2021/04/16 01:26:24;;;;;;;6.85;5.35;;;2.90;99.90;;;;;;6216476;23;20169;-77
2021/04/16 01:28:50;;;;;;;5.40;4.50;;;2.90;99.90;;;;;;6216785;23;20134;-77
2021/04/16 01:31:20;;;;;;;7.70;4.67;;;2.90;99.90;;;;;;6216794;23;20180;-77
2021/04/16 01:33:49;;;;;;;7.13;5.00;;;2.80;99.90;;;;;;6217623;23;20184;-76
2021/04/16 01:36:18;;;;;;;6.75;5.47;;;2.90;99.90;;;;;;6216476;23;20240;-77
2021/04/16 01:38:44;;;;;;;8.55;5.22;;;2.80;99.90;;;;;;6217081;23;20169;-77
2021/04/16 01:41:12;;;;;;;6.90;4.95;;;2.80;99.90;;;;;;6216646;23;20159;-76
2021/04/16 01:43:41;;;;;;;6.88;5.40;;;2.70;99.90;;;;;;6216549;23;20212;-75
2021/04/16 01:46:15;;;;;;;6.75;4.93;;;2.80;99.90;;;;;;6216159;23;20168;-77
2021/04/16 01:48:45;;;;;;;7.57;4.78;;;2.80;99.90;;;;;;6216997;23;20145;-76
2021/04/16 01:51:15;;;;;;;8.18;5.00;;;2.90;99.90;;;;;;6216655;23;20142;-76
2021/04/16 01:53:41;;;;;;;6.13;5.30;;;2.80;99.90;;;;;;6216897;23;20146;-76
2021/04/16 01:56:07;;;;;;;7.77;5.30;;;2.80;99.90;;;;;;6216207;23;20250;-76
2021/04/16 01:58:33;;;;;;;7.45;4.88;;;2.70;99.90;;;;;;6190055;23;20422;-76
2021/04/16 02:00:59;;;;;;;7.53;4.87;;;2.70;99.90;;;;;;6216591;23;20176;-76
2021/04/16 02:03:25;;;;;;;6.17;5.03;;;2.60;99.90;;;;;;6216305;23;20372;-76
2021/04/16 02:05:51;;;;;;;6.30;4.97;;;2.60;99.90;;;;;;6216356;23;20395;-76
2021/04/16 02:08:18;;;;;;;7.90;5.50;;;2.50;99.90;;;;;;6216482;23;20368;-76
2021/04/16 02:10:44;;;;;;;7.88;5.60;;;2.60;99.90;;;;;;6216285;23;20869;-76
2021/04/16 02:13:10;;;;;;;6.33;4.93;;;2.60;99.90;;;;;;6189785;23;20175;-76
2021/04/16 02:15:36;;;;;;;5.65;5.15;;;2.50;99.90;;;;;;6215890;23;20393;-76
2021/04/16 02:18:02;;;;;;;8.20;5.10;;;2.50;99.90;;;;;;6189776;23;20227;-76
2021/04/16 02:20:28;;;;;;;7.70;5.50;;;2.50;99.90;;;;;;6216364;23;20738;-76
2021/04/16 02:22:54;;;;;;;7.25;4.68;;;2.50;99.90;;;;;;6216339;23;20153;-77
2021/04/16 02:25:21;;;;;;;9.63;5.20;;;2.50;99.90;;;;;;6215871;23;20169;-76
2021/04/16 02:27:47;;;;;;;7.93;5.70;;;2.50;99.90;;;;;;6216265;23;20152;-76
2021/04/16 02:30:23;;;;;;;6.57;5.47;;;2.40;99.90;;;;;;6189659;23;20172;-77
2021/04/16 02:32:49;;;;;;;8.43;6.50;;;2.40;99.90;;;;;;6216452;23;20390;-77
2021/04/16 02:35:16;;;;;;;5.47;4.97;;;2.40;99.90;;;;;;6216055;23;20169;-77
2021/04/16 02:37:42;;;;;;;6.82;5.85;;;2.40;99.90;;;;;;6215912;23;20181;-76
2021/04/16 02:40:09;;;;;;;8.30;5.77;;;2.40;99.90;;;;;;6216370;23;20223;-76
2021/04/16 02:42:35;;;;;;;7.72;5.28;;;2.40;99.90;;;;;;6216198;23;20419;-76
2021/04/16 02:45:01;;;;;;;8.43;6.47;;;2.40;99.90;;;;;;6189353;23;20595;-76
2021/04/16 02:47:27;;;;;;;12.30;6.40;;;2.50;99.90;;;;;;6216027;23;20406;-76
2021/04/16 02:49:52;;;;;;;7.40;6.03;;;2.50;99.90;;;;;;6215883;23;20548;-76
2021/04/16 02:52:18;;;;;;;9.70;6.50;;;2.50;99.90;;;;;;6216307;23;20153;-77
2021/04/16 02:54:44;;;;;;;6.80;6.07;;;2.50;99.90;;;;;;6216082;23;20227;-76
2021/04/16 02:57:09;;;;;;;7.97;6.13;;;2.50;99.90;;;;;;6215962;23;20295;-76
2021/04/16 02:59:35;;;;;;;7.63;6.20;;;2.50;99.90;;;;;;6215952;23;20152;-76
2021/04/16 03:02:00;;;;;;;6.93;6.00;;;2.60;99.90;;;;;;6216489;23;20231;-76
2021/04/16 03:04:26;;;;;;;8.53;6.83;;;2.60;99.90;;;;;;6189175;23;20184;-76
2021/04/16 03:06:52;;;;;;;8.55;5.85;;;2.60;99.90;;;;;;6215356;23;20293;-77
2021/04/16 03:09:18;;;;;;;11.53;6.37;;;2.70;99.90;;;;;;6215822;23;20145;-76
2021/04/16 03:11:43;;;;;;;8.90;5.90;;;2.80;99.90;;;;;;6215696;23;20552;-77
2021/04/16 03:14:09;;;;;;;8.53;6.20;;;2.90;99.90;;;;;;6215745;23;20661;-77
2021/04/16 03:16:35;;;;;;;8.10;5.77;;;3.00;99.90;;;;;;6215250;23;20253;-76
2021/04/16 03:19:02;;;;;;;7.88;5.68;;;3.00;99.90;;;;;;6215709;23;20500;-77
2021/04/16 03:21:28;;;;;;;8.73;6.78;;;3.00;99.90;;;;;;6215786;23;20243;-76
2021/04/16 03:23:54;;;;;;;6.95;6.25;;;3.20;99.90;;;;;;6215735;23;20156;-76
2021/04/16 03:26:21;;;;;;;9.63;6.03;;;3.20;99.90;;;;;;6214875;23;20475;-76
2021/04/16 03:28:50;;;;;;;8.55;6.18;;;3.20;99.90;;;;;;6215733;23;20149;-77
2021/04/16 03:31:16;;;;;;;7.03;5.65;;;3.30;99.90;;;;;;6190201;23;20199;-77
2021/04/16 03:33:41;;;;;;;8.77;5.67;;;3.30;99.90;;;;;;6215656;23;20150;-77
2021/04/16 03:36:07;;;;;;;7.77;5.40;;;3.40;99.90;;;;;;6215053;23;20204;-76
2021/04/16 03:38:33;;;;;;;10.70;6.30;;;3.40;99.90;;;;;;6215884;23;20181;-76
2021/04/16 03:40:59;;;;;;;8.83;6.00;;;3.60;99.90;;;;;;6215781;23;20381;-77
2021/04/16 03:43:25;;;;;;;8.57;6.15;;;3.60;99.90;;;;;;6215942;23;20563;-77
2021/04/16 03:45:50;;;;;;;10.40;8.40;;;3.70;99.90;;;;;;6215129;23;20180;-76
2021/04/16 03:48:16;;;;;;;10.37;6.80;;;3.80;99.90;;;;;;6215406;23;20164;-76
2021/04/16 03:50:42;;;;;;;7.70;5.70;;;3.80;99.90;;;;;;6215740;23;20161;-77
2021/04/16 03:53:08;;;;;;;7.90;6.63;;;3.80;99.90;;;;;;6189142;23;20574;-75
2021/04/16 03:55:36;;;;;;;7.65;5.55;;;3.90;99.90;;;;;;6214998;23;20180;-76
2021/04/16 03:58:02;;;;;;;10.77;6.75;;;3.90;99.90;;;;;;6215623;23;20179;-76
2021/04/16 04:00:31;;;;;;;8.45;6.35;;;4.00;99.90;;;;;;6215504;23;20157;-75
2021/04/16 04:02:57;;;;;;;7.90;6.60;;;4.00;99.90;;;;;;6215535;23;20517;-77
2021/04/16 04:05:24;;;;;;;11.52;7.80;;;4.00;99.90;;;;;;6215099;23;20217;-76
2021/04/16 04:07:50;;;;;;;8.77;6.15;;;4.00;99.90;;;;;;6215441;23;20235;-77
2021/04/16 04:10:18;;;;;;;8.43;6.13;;;4.00;99.90;;;;;;6215422;23;20173;-78
2021/04/16 04:12:44;;;;;;;9.00;5.90;;;4.00;99.90;;;;;;6215779;23;20149;-76
2021/04/16 04:15:11;;;;;;;10.35;6.45;;;4.00;99.90;;;;;;6188561;23;20621;-76
2021/04/16 04:17:37;;;;;;;9.30;6.65;;;3.90;99.90;;;;;;6215374;23;20268;-76
2021/04/16 04:20:18;;;;;;;6.25;5.65;;;3.90;99.90;;;;;;6215626;23;20561;-76
2021/04/16 04:22:44;;;;;;;7.28;5.95;;;3.90;99.90;;;;;;6215865;23;20129;-74
2021/04/16 04:25:10;;;;;;;13.63;5.77;;;3.90;99.90;;;;;;6215132;23;20493;-76
2021/04/16 04:27:35;;;;;;;11.45;5.80;;;4.00;99.90;;;;;;6215304;23;20155;-76
2021/04/16 04:30:02;;;;;;;7.60;5.83;;;4.00;99.90;;;;;;6215470;23;20149;-76
2021/04/16 04:32:28;;;;;;;6.90;5.95;;;3.90;99.90;;;;;;6215083;23;20189;-75
2021/04/16 04:34:54;;;;;;;6.07;5.27;;;3.90;99.90;;;;;;6188813;23;20153;-76
2021/04/16 04:37:19;;;;;;;8.60;6.00;;;3.90;99.90;;;;;;6216061;23;20185;-75
2021/04/16 04:39:45;;;;;;;8.77;6.87;;;3.90;99.90;;;;;;6217250;23;20149;-76
2021/04/16 04:42:11;;;;;;;9.37;6.73;;;3.90;99.90;;;;;;6217253;23;20149;-76
2021/04/16 04:44:37;;;;;;;6.88;6.05;;;3.80;99.90;;;;;;6216954;23;20639;-76
2021/04/16 04:47:03;;;;;;;7.05;5.70;;;3.80;99.90;;;;;;6217461;23;20166;-76
2021/04/16 04:49:29;;;;;;;8.20;6.23;;;3.80;99.90;;;;;;6217415;23;20153;-76
2021/04/16 04:52:19;;;;;;;10.90;6.70;;;3.80;99.90;;;;;;6217417;23;20380;-75
2021/04/16 04:54:51;;;;;;;8.40;5.85;;;3.70;99.90;;;;;;6216982;23;20170;-77
2021/04/16 04:57:19;;;;;;;10.20;7.20;;;3.50;99.90;;;;;;6216910;23;20498;-75
2021/04/16 04:59:45;;;;;;;7.85;6.63;;;3.40;99.90;;;;;;6217207;23;20145;-75
2021/04/16 05:02:12;;;;;;;6.57;5.95;;;3.40;99.90;;;;;;6216827;23;20204;-75
2021/04/16 05:04:37;;;;;;;10.93;7.18;;;3.60;99.90;;;;;;6216688;23;20158;-76
2021/04/16 05:07:03;;;;;;;14.13;8.00;;;3.60;99.90;;;;;;6217378;23;20638;-75
2021/04/16 05:09:29;;;;;;;8.97;6.63;;;3.60;99.90;;;;;;6217218;23;20150;-75
2021/04/16 05:11:54;;;;;;;13.33;6.80;;;3.50;99.90;;;;;;6217136;23;20401;-77
2021/04/16 05:14:20;;;;;;;10.90;7.10;;;3.40;99.90;;;;;;6216907;23;20155;-75
2021/04/16 05:16:46;;;;;;;7.53;6.63;;;3.40;99.90;;;;;;6216409;23;20260;-76
2021/04/16 05:19:12;;;;;;;7.97;7.00;;;3.50;99.90;;;;;;6216909;23;20196;-76
2021/04/16 05:21:39;;;;;;;7.23;6.30;;;3.50;99.90;;;;;;6217120;23;20156;-76
2021/04/16 05:24:08;;;;;;;9.40;7.18;;;3.50;99.90;;;;;;6216988;23;20146;-77
2021/04/16 05:26:35;;;;;;;10.48;7.60;;;3.60;99.90;;;;;;6216341;23;20530;-76
2021/04/16 05:29:01;;;;;;;8.43;6.50;;;3.60;99.90;;;;;;6216653;23;20152;-76
2021/04/16 05:31:27;;;;;;;9.83;6.60;;;3.50;99.90;;;;;;6216833;23;20154;-75
2021/04/16 05:33:53;;;;;;;8.45;7.50;;;3.40;99.90;;;;;;6216679;23;20376;-76
2021/04/16 05:36:19;;;;;;;9.60;6.75;;;3.40;99.90;;;;;;6216420;23;20169;-77
2021/04/16 05:38:45;;;;;;;8.10;7.20;;;3.40;99.90;;;;;;6216612;23;20175;-78
2021/04/16 05:41:10;;;;;;;14.03;7.07;;;3.30;99.90;;;;;;6216673;23;20137;-75
2021/04/16 05:43:36;;;;;;;9.10;6.43;;;3.40;99.90;;;;;;6216687;23;20147;-75
2021/04/16 05:46:02;;;;;;;9.30;6.90;;;3.40;99.90;;;;;;6216632;23;20205;-75
2021/04/16 05:48:28;;;;;;;9.80;6.90;;;3.50;99.90;;;;;;6216266;23;20712;-75
2021/04/16 05:50:53;;;;;;;8.90;6.63;;;3.60;99.90;;;;;;6216402;23;20518;-76
2021/04/16 05:53:19;;;;;;;8.40;6.37;;;3.70;99.90;;;;;;6216550;23;20186;-75
2021/04/16 05:55:44;;;;;;;8.43;6.90;;;3.70;99.90;;;;;;6216346;23;20173;-77
2021/04/16 05:58:10;;;;;;;10.77;7.40;;;3.80;99.90;;;;;;6216767;23;20173;-75
2021/04/16 06:00:36;;;;;;;10.67;6.80;;;3.90;99.90;;;;;;6216657;23;20176;-76
2021/04/16 06:03:01;;;;;;;10.20;6.70;;;4.00;99.90;;;;;;6216524;23;20149;-78
2021/04/16 06:05:27;;;;;;;7.33;6.50;;;4.00;99.90;;;;;;6216116;23;20173;-76
2021/04/16 06:07:55;;;;;;;7.30;6.50;;;4.00;99.90;;;;;;6216657;23;20162;-75
2021/04/16 06:10:22;;;;;;;6.13;5.38;;;4.00;99.90;;;;;;6216388;23;20193;-75
2021/04/16 06:12:48;;;;;;;7.47;5.82;;;4.10;99.90;;;;;;6216814;23;20165;-76
2021/04/16 06:15:17;;;;;;;10.65;7.05;;;4.10;99.90;;;;;;6215796;23;20181;-76
2021/04/16 06:17:44;;;;;;;10.57;6.47;;;4.20;99.90;;;;;;6216333;23;20200;-77
2021/04/16 06:20:11;;;;;;;10.00;7.60;;;4.30;99.90;;;;;;6216350;23;20143;-77
2021/04/16 06:22:37;;;;;;;8.70;7.15;;;4.40;99.90;;;;;;6216713;23;20162;-76
2021/04/16 06:25:05;;;;;;;11.13;6.85;;;4.40;99.90;;;;;;6216226;23;20146;-76
2021/04/16 06:27:31;;;;;;;8.77;6.05;;;4.60;99.90;;;;;;6216140;23;20219;-81
2021/04/16 06:29:56;;;;;;;8.57;6.73;;;4.60;99.90;;;;;;6216449;23;20154;-79
2021/04/16 06:32:22;;;;;;;14.93;7.40;;;4.70;99.90;;;;;;6215591;23;20160;-78
2021/04/16 06:34:48;;;;;;;11.63;7.40;;;4.60;99.90;;;;;;6215389;23;20155;-80
2021/04/16 06:37:14;;;;;;;8.13;6.70;;;4.60;99.90;;;;;;6216316;23;20173;-85
2021/04/16 06:39:40;;;;;;;10.40;7.43;;;4.60;99.90;;;;;;6217894;23;20209;-86
2021/04/16 06:42:17;;;;;;;8.20;6.53;;;4.80;99.90;;;;;;6219521;23;20160;-86
2021/04/16 06:44:46;;;;;;;10.50;6.50;;;4.90;99.90;;;;;;6195434;23;20155;-84
2021/04/16 06:47:58;;;;;;;8.13;5.75;;;4.90;99.90;;;;;;6191085;23;20204;-81
2021/04/16 06:50:29;;;;;;;10.15;7.95;;;5.30;99.90;;;;;;6134530;23;20149;-81
2021/04/16 06:53:06;;;;;;;9.82;8.13;;;5.50;99.90;;;;;;6216993;23;20134;-87
2021/04/16 06:55:53;;;;;;;10.98;7.50;;;5.60;99.90;;;;;;6217562;23;20645;-81
2021/04/16 06:58:33;;;;;;;10.30;7.45;;;5.90;99.90;;;;;;6216176;23;20174;-88
2021/04/16 07:01:10;;;;;;;10.27;6.63;;;6.10;99.90;;;;;;6191412;23;20553;-83
2021/04/16 07:03:46;;;;;;;9.90;6.82;;;6.10;99.90;;;;;;6191390;23;20149;-82
2021/04/16 07:06:23;;;;;;;9.43;7.20;;;6.10;99.90;;;;;;6216253;23;20172;-83
2021/04/16 07:09:12;;;;;;;10.13;7.70;;;6.30;99.90;;;;;;6216396;23;20152;-81
2021/04/16 07:12:05;;;;;;;7.18;6.47;;;6.50;99.90;;;;;;6215995;23;20250;-81
2021/04/16 07:14:52;;;;;;;9.80;6.97;;;6.50;99.90;;;;;;6189310;23;20141;-82
2021/04/16 07:17:22;;;;;;;8.02;5.88;;;6.60;99.90;;;;;;6216386;23;20195;-81
2021/04/16 07:19:48;;;;;;;9.20;6.03;;;6.50;99.90;;;;;;6216513;23;20156;-85
2021/04/16 07:22:23;;;;;;;8.00;6.82;;;6.30;99.90;;;;;;6189499;23;20232;-80
2021/04/16 07:24:50;;;;;;;9.13;6.47;;;6.40;99.90;;;;;;6215366;23;20145;-80
2021/04/16 07:27:21;;;;;;;8.73;6.30;;;6.50;99.90;;;;;;6187817;23;20179;-81
2021/04/16 07:29:53;;;;;;;10.57;6.45;;;6.60;99.90;;;;;;6215705;23;20141;-81
2021/04/16 07:32:32;;;;;;;7.25;5.80;;;7.00;99.90;;;;;;6215601;23;20165;-80
2021/04/16 07:35:16;;;;;;;7.05;5.97;;;6.90;99.90;;;;;;6215306;23;20583;-80
2021/04/16 07:37:46;;;;;;;8.85;5.82;;;7.00;99.90;;;;;;6215559;23;20177;-79
2021/04/16 07:40:25;;;;;;;7.93;5.90;;;7.30;99.90;;;;;;6215490;23;20177;-80
2021/04/16 07:42:52;;;;;;;8.70;5.70;;;7.50;99.90;;;;;;6189135;23;20221;-77
2021/04/16 07:45:40;;;;;;;10.90;6.03;;;7.20;99.90;;;;;;6215225;23;20599;-78
2021/04/16 07:48:18;;;;;;;6.72;5.25;;;7.20;99.90;;;;;;6215827;23;20563;-82
2021/04/16 07:50:50;;;;;;;7.68;5.82;;;7.30;99.90;;;;;;6215895;23;20157;-81
2021/04/16 07:53:31;;;;;;;9.43;5.57;;;7.50;99.90;;;;;;6215747;23;20224;-81
2021/04/16 07:56:11;;;;;;;6.88;5.70;;;7.50;99.90;;;;;;6215241;23;20165;-78
2021/04/16 07:58:37;;;;;;;6.07;5.47;;;7.60;99.90;;;;;;6216059;23;20177;-77
2021/04/16 08:01:32;;;;;;;6.80;4.82;;;7.90;99.90;;;;;;6215626;23;20145;-79
2021/04/16 08:04:13;;;;;;;5.95;4.95;;;8.00;99.90;;;;;;6211505;23;20587;-77
2021/04/16 08:06:45;;;;;;;6.47;5.35;;;8.00;99.90;;;;;;6215809;23;20161;-82
2021/04/16 08:09:30;;;;;;;9.80;5.25;;;7.90;99.90;;;;;;6215365;23;20149;-80
2021/04/16 08:12:08;;;;;;;5.15;4.57;;;8.20;99.90;;;;;;6189346;23;20201;-82
2021/04/16 08:14:40;;;;;;;7.47;4.75;;;8.20;99.90;;;;;;6217151;23;20150;-81
2021/04/16 08:17:22;;;;;;;10.57;5.03;;;8.50;99.90;;;;;;6217726;23;20177;-80
2021/04/16 08:19:50;;;;;;;7.72;5.20;;;8.40;99.90;;;;;;6217972;23;20486;-80
2021/04/16 08:22:30;;;;;;;6.60;4.60;;;8.70;99.90;;;;;;6217387;23;20220;-80
2021/04/16 08:25:02;;;;;;;5.25;4.55;;;8.60;99.90;;;;;;6217934;23;20184;-78
2021/04/16 08:27:35;;;;;;;5.45;4.90;;;8.60;99.90;;;;;;6217480;23;20248;-78
2021/04/16 08:30:22;;;;;;;7.90;5.07;;;8.60;99.90;;;;;;6217636;23;20136;-81
2021/04/16 08:33:15;;;;;;;6.95;5.05;;;8.70;99.90;;;;;;6217371;23;20149;-82
2021/04/16 08:36:24;;;;;;;6.25;4.95;;;8.70;99.90;;;;;;6217044;23;20185;-81
2021/04/16 08:38:54;;;;;;;5.20;4.70;;;8.20;99.90;;;;;;6178639;23;20300;-80
2021/04/16 08:41:20;;;;;;;7.50;4.63;;;8.30;99.90;;;;;;6217407;23;20149;-82
2021/04/16 08:44:00;;;;;;;8.65;5.25;;;8.70;99.90;;;;;;6217329;23;20150;-81
2021/04/16 08:46:36;;;;;;;8.63;5.85;;;8.90;99.90;;;;;;6216761;23;20310;-83
2021/04/16 08:49:27;;;;;;;6.82;5.10;;;9.40;99.90;;;;;;6217362;23;20140;-79
2021/04/16 08:52:07;;;;;;;5.95;4.57;;;9.20;99.90;;;;;;6198415;23;20581;-77
2021/04/16 08:54:35;;;;;;;6.75;5.97;;;9.10;99.90;;;;;;6216813;23;20133;-80
2021/04/16 08:57:09;;;;;;;10.27;6.40;;;8.90;99.90;;;;;;6216915;23;20544;-82
2021/04/16 08:59:50;;;;;;;7.10;5.80;;;8.90;99.90;;;;;;6190993;23;20199;-86
2021/04/16 09:02:19;;;;;;;9.70;4.80;;;9.30;99.90;;;;;;6217921;23;20196;-82
2021/04/16 09:04:51;;;;;;;7.78;6.40;;;9.30;99.90;;;;;;6216561;23;20236;-79
2021/04/16 09:07:41;;;;;;;7.45;5.63;;;9.20;99.90;;;;;;6217366;23;20169;-77
2021/04/16 09:10:29;;;;;;;7.15;5.30;;;9.20;99.90;;;;;;6217419;23;20509;-78
2021/04/16 09:12:57;;;;;;;7.55;5.65;;;9.00;99.90;;;;;;6216871;23;20207;-78
2021/04/16 09:15:46;;;;;;;10.65;6.07;;;9.10;99.90;;;;;;6216659;23;20176;-80
2021/04/16 09:18:24;;;;;;;7.95;5.85;;;9.20;99.90;;;;;;6216245;23;20320;-80
2021/04/16 09:20:50;;;;;;;8.82;6.20;;;9.00;99.90;;;;;;6190329;23;20472;-80
2021/04/16 09:23:27;;;;;;;7.03;5.83;;;9.10;99.90;;;;;;6216132;23;20149;-80
2021/04/16 09:25:53;;;;;;;6.35;5.03;;;9.20;99.90;;;;;;6216509;23;20161;-79
2021/04/16 09:28:24;;;;;;;9.40;5.63;;;9.40;99.90;;;;;;6190321;23;20161;-80
2021/04/16 09:30:53;;;;;;;9.68;5.30;;;9.40;99.90;;;;;;6216756;23;20180;-81
2021/04/16 09:33:43;;;;;;;7.45;5.70;;;9.70;99.90;;;;;;6216869;23;20157;-82
2021/04/16 09:36:10;;;;;;;8.07;4.85;;;9.80;99.90;;;;;;6175485;23;20173;-83
2021/04/16 09:39:12;;;;;;;7.25;4.85;;;9.70;99.90;;;;;;6216610;23;20169;-82
2021/04/16 09:41:38;;;;;;;6.00;5.30;;;10.00;99.90;;;;;;6216936;23;20137;-79
2021/04/16 09:44:25;;;;;;;5.85;4.63;;;10.40;99.90;;;;;;6190416;23;20376;-80
2021/04/16 09:46:52;;;;;;;5.67;4.77;;;10.30;99.90;;;;;;6216451;23;20168;-80
2021/04/16 09:49:24;;;;;;;6.23;4.80;;;10.60;99.90;;;;;;6216569;23;20377;-80
2021/04/16 09:51:51;;;;;;;7.70;5.03;;;10.70;99.90;;;;;;6216636;23;20734;-81
2021/04/16 09:54:22;;;;;;;4.87;4.37;;;10.50;99.90;;;;;;6189915;23;20376;-80
2021/04/16 09:57:03;;;;;;;6.73;4.63;;;10.90;99.90;;;;;;6216550;23;20388;-80
2021/04/16 09:59:42;;;;;;;6.00;4.60;;;10.90;99.90;;;;;;6216550;23;20376;-81
2021/04/16 10:02:13;;;;;;;5.70;4.40;;;11.10;99.90;;;;;;6216589;23;20727;-81
2021/04/16 10:04:59;;;;;;;5.57;4.23;;;10.90;99.90;;;;;;6216338;23;20737;-80
2021/04/16 10:07:52;;;;;;;4.10;3.20;;;11.00;99.90;;;;;;6214671;23;20435;-81
2021/04/16 10:10:33;;;;;;;4.00;3.60;;;10.80;99.90;;;;;;6216440;23;20361;-80
2021/04/16 10:13:19;;;;;;;4.83;3.60;;;10.80;99.90;;;;;;6216396;23;20595;-81
2021/04/16 10:15:48;;;;;;;4.73;3.83;;;11.00;99.90;;;;;;6216308;23;20367;-81
2021/04/16 10:18:32;;;;;;;4.97;3.67;;;10.80;99.90;;;;;;6216569;23;20731;-80
2021/04/16 10:21:14;;;;;;;3.93;3.23;;;10.70;99.90;;;;;;6216385;23;20353;-82
2021/04/16 10:23:44;;;;;;;5.07;3.73;;;11.10;99.90;;;;;;6216614;23;20353;-81
2021/04/16 12:58:00;;;;;;;3.27;2.47;;;15.50;83.30;;;;;;6254053;22;20473;-80
2021/04/16 13:00:32;;;;;;;3.47;2.10;;;15.30;83.90;;;;;;6218749;23;20390;-78
2021/04/16 13:02:59;;;;;;;2.90;2.10;;;14.80;82.00;;;;;;6218134;23;20421;-78
2021/04/16 13:05:26;;;;;;;3.93;2.20;;;14.60;83.60;;;;;;6243937;22;20350;-78
2021/04/16 13:07:53;;;;;;;3.93;2.53;;;14.70;82.30;;;;;;6245745;23;20370;-77
2021/04/16 13:10:21;;;;;;;2.67;2.00;;;15.20;83.80;;;;;;6244387;23;20392;-80
2021/04/16 13:12:46;;;;;;;2.50;2.20;;;15.20;85.60;;;;;;6244578;23;20361;-78
2021/04/16 13:15:14;;;;;;;2.20;2.00;;;15.70;86.30;;;;;;6245060;23;20362;-77
2021/04/16 13:17:47;;;;;;;5.77;2.40;;;15.50;77.00;;;;;;6247076;23;20473;-76
2021/04/16 13:20:14;;;;;;;3.67;2.40;;;15.40;78.70;;;;;;6246567;23;20642;-77
2021/04/16 13:22:41;;;;;;;3.60;2.23;;;16.10;80.80;;;;;;6247307;23;20702;-76
2021/04/16 13:25:09;;;;;;;2.40;1.93;;;16.40;74.80;;;;;;6220305;23;20391;-76
2021/04/16 13:27:34;;;;;;;3.93;2.50;;;16.30;75.90;;;;;;6219348;23;20383;-76
2021/04/16 13:30:00;;;;;;;4.43;2.07;;;16.20;76.80;;;;;;6219929;23;20441;-76
2021/04/16 13:32:32;;;;;;;4.00;2.13;;;16.10;73.00;;;;;;6247036;23;20235;-75
2021/04/16 13:34:59;;;;;;;4.03;2.13;;;16.10;77.10;;;;;;6245923;23;20137;-76
2021/04/16 13:37:30;;;;;;;2.30;1.93;;;16.90;75.00;;;;;;6220425;23;20371;-76
2021/04/16 13:39:56;;;;;;;2.07;1.80;;;16.60;71.30;;;;;;6220221;23;20350;-76
2021/04/16 13:42:21;;;;;;;2.77;1.87;;;17.00;74.20;;;;;;6220116;23;20346;-77
2021/04/16 13:44:47;;;;;;;6.47;1.93;;;17.50;71.80;;;;;;6246378;23;20180;-76
2021/04/16 13:47:19;;;;;;;2.07;1.80;;;17.10;72.70;;;;;;6243733;23;20165;-77
2021/04/16 13:49:56;;;;;;;4.50;2.40;;;16.40;68.20;;;;;;6246173;23;20149;-79
2021/04/16 13:52:27;;;;;;;3.80;1.73;;;16.50;70.30;;;;;;6220130;23;20379;-79
2021/04/16 13:54:53;;;;;;;3.57;1.67;;;17.20;70.70;;;;;;6194955;23;20383;-77
2021/04/16 13:57:19;;;;;;;5.50;2.27;;;17.40;69.20;;;;;;6246496;23;20396;-77
2021/04/16 13:59:51;;;;;;;2.63;2.40;;;17.40;67.00;;;;;;6247005;23;20455;-79
2021/04/16 14:02:25;;;;;;;2.13;1.93;;;16.90;66.70;;;;;;6245411;23;20391;-78
2021/04/16 14:04:52;;;;;;;7.43;2.20;;;16.80;67.30;;;;;;6246289;23;20334;-79
2021/04/16 14:07:19;;;;;;;3.83;2.53;;;16.50;67.30;;;;;;6194697;23;20420;-78
2021/04/16 14:09:44;;;;;;;3.87;2.10;;;16.50;67.00;;;;;;6217606;23;20474;-80
2021/04/16 14:12:12;;;;;;;3.37;1.70;;;16.50;66.60;;;;;;6219492;23;20436;-78
2021/04/16 14:14:38;;;;;;;3.97;2.03;;;16.30;65.50;;;;;;6219701;23;20153;-78
2021/04/16 14:17:17;;;;;;;2.53;1.70;;;17.10;65.50;;;;;;6219205;23;20825;-80
2021/04/16 14:19:52;;;;;;;7.53;2.37;;;17.20;66.40;;;;;;6220100;23;20160;-79
2021/04/16 14:22:45;;;;;;;7.23;2.10;;;17.30;62.70;;;;;;6220066;23;20371;-79
2021/04/16 14:28:09;;;;;;;2.33;1.90;;;17.00;65.30;;;;;;6216790;22;20491;-79
2021/04/16 14:30:37;;;;;;;2.33;2.13;;;17.40;63.70;;;;;;6209383;23;20192;-79
2021/04/16 14:33:06;;;;;;;2.70;1.60;;;18.30;63.40;;;;;;6214262;23;20388;-79
2021/04/16 14:35:32;;;;;;;5.20;1.60;;;18.00;60.40;;;;;;6215861;23;20393;-77
2021/04/16 14:37:59;;;;;;;3.93;1.70;;;17.90;60.10;;;;;;6215164;23;20420;-79
2021/04/16 14:40:25;;;;;;;4.17;2.00;;;17.70;58.60;;;;;;6216201;23;20453;-80
2021/04/16 14:42:52;;;;;;;2.90;1.73;;;17.50;59.40;;;;;;6215226;23;20346;-79
2021/04/16 14:45:25;;;;;;;3.30;2.13;;;17.90;59.70;;;;;;6215831;23;20437;-81
2021/04/16 14:47:50;;;;;;;2.10;1.90;;;17.30;59.10;;;;;;6214881;23;20365;-79
2021/04/16 14:50:18;;;;;;;2.73;2.10;;;17.10;57.90;;;;;;6214541;23;20705;-80
2021/04/16 14:52:44;;;;;;;2.00;1.80;;;17.20;57.90;;;;;;6216373;23;20149;-81
2021/04/16 14:55:27;;;;;;;4.60;2.20;;;17.00;58.10;;;;;;6215272;23;20401;-81
2021/04/16 14:57:55;;;;;;;2.70;1.53;;;16.50;56.50;;;;;;6219890;23;20406;-81
2021/04/16 15:00:23;;;;;;;2.73;2.10;;;16.40;58.00;;;;;;6215616;23;20841;-79
2021/04/16 15:02:49;;;;;;;2.23;1.80;;;16.50;59.10;;;;;;6216862;23;20365;-80
2021/04/16 15:05:18;;;;;;;2.30;1.80;;;16.70;60.40;;;;;;6214909;23;20451;-80
2021/04/16 15:07:54;;;;;;;2.43;2.23;;;16.60;58.70;;;;;;6216892;23;20203;-80
2021/04/16 15:10:32;;;;;;;2.60;1.87;;;16.60;59.40;;;;;;6214734;23;20389;-80
2021/04/16 15:12:58;;;;;;;6.37;2.83;;;16.50;59.40;;;;;;6215919;23;20380;-80
2021/04/16 15:15:26;;;;;;;2.77;2.10;;;16.50;59.90;;;;;;6215450;23;20388;-79
2021/04/16 15:17:53;;;;;;;3.83;2.40;;;16.00;58.60;;;;;;6215932;23;20737;-79
2021/04/16 15:20:22;;;;;;;2.87;1.93;;;16.00;59.50;;;;;;6215996;23;20708;-80
2021/04/16 15:22:48;;;;;;;5.17;2.63;;;16.00;61.70;;;;;;6215457;23;20343;-81
2021/04/16 15:25:14;;;;;;;2.93;2.30;;;15.90;60.30;;;;;;6214876;23;20374;-81
2021/04/16 15:27:55;;;;;;;5.13;2.57;;;16.00;63.00;;;;;;6215704;23;20291;-81
2021/04/16 15:30:30;;;;;;;3.97;2.40;;;15.90;61.00;;;;;;6214518;23;20390;-83
2021/04/16 15:32:56;;;;;;;2.43;1.90;;;15.90;61.50;;;;;;6215920;23;20339;-81
2021/04/16 15:46:52;;;;;;;2.77;2.40;;;16.20;61.50;;;;;;6215728;23;20371;-81
2021/04/16 15:49:18;;;;;;;4.20;2.30;;;16.00;62.60;;;;;;6215977;23;20367;-80
2021/04/16 15:51:44;;;;;;;2.30;2.10;;;15.60;61.70;;;;;;6215395;23;20375;-77
2021/04/16 15:54:11;;;;;;;4.60;2.77;;;15.40;63.50;;;;;;6214198;23;20244;-77
2021/04/16 15:56:42;;;;;;;3.00;2.70;;;15.10;62.70;;;;;;6216003;23;20840;-77